Time;durP1;ratioP1;P1;durP2;ratioP2;P2;SDS_P1;SDS_P2;PMS_P1;PMS_P2;Temp;Humidity;BMP_temperature;BMP_pressure;BME280_temperature;BME280_humidity;BME280_pressure;Samples;Min_cycle;Max_cycle;Signal;HPM_P1;HPM_P2
2022/11/13 00:01:06;;;;;;;0.10;0.10;;;6.20;99.90;;;;;;5081758;28;20054;-75
2022/11/13 00:03:31;;;;;;;0.20;0.20;;;6.20;99.90;;;;;;5083643;28;20491;-75
2022/11/13 00:06:01;;;;;;;0.10;0.10;;;6.30;99.90;;;;;;5085739;28;20036;-75
2022/11/13 00:08:27;;;;;;;0.30;0.30;;;6.20;99.90;;;;;;5077293;28;20051;-75
2022/11/13 00:10:59;;;;;;;0.20;0.20;;;6.30;99.90;;;;;;5080475;28;20045;-76
2022/11/13 00:13:25;;;;;;;0.13;0.13;;;6.20;99.90;;;;;;5076371;28;20127;-75
2022/11/13 00:16:03;;;;;;;0.10;0.10;;;6.20;99.90;;;;;;5087009;28;20460;-76
2022/11/13 00:18:29;;;;;;;0.20;0.20;;;6.20;99.90;;;;;;5086081;28;20052;-75
2022/11/13 00:20:57;;;;;;;0.20;0.20;;;6.20;99.90;;;;;;5089670;28;20046;-76
2022/11/13 00:23:23;;;;;;;0.20;0.20;;;6.20;99.90;;;;;;5085326;28;20075;-74
2022/11/13 00:25:49;;;;;;;0.20;0.20;;;6.20;99.90;;;;;;5079679;28;20048;-76
2022/11/13 00:28:14;;;;;;;0.10;0.10;;;6.20;99.90;;;;;;5075009;28;20488;-74
2022/11/13 00:30:40;;;;;;;0.20;0.20;;;6.20;99.90;;;;;;5071292;28;20416;-75
2022/11/13 00:33:06;;;;;;;0.20;0.20;;;6.20;99.90;;;;;;5080092;28;20051;-75
2022/11/13 00:35:32;;;;;;;0.10;0.10;;;6.20;99.90;;;;;;5084183;28;20036;-74
2022/11/13 00:37:58;;;;;;;0.20;0.20;;;6.20;99.90;;;;;;5069437;28;20051;-75
2022/11/13 00:40:24;;;;;;;0.20;0.20;;;6.30;99.90;;;;;;5067864;28;20033;-75
2022/11/13 00:42:49;;;;;;;0.20;0.20;;;6.30;99.90;;;;;;5082025;28;20494;-75
2022/11/13 00:45:15;;;;;;;0.20;0.20;;;6.30;99.90;;;;;;5072377;28;20040;-74
2022/11/13 00:47:41;;;;;;;0.20;0.20;;;6.30;99.90;;;;;;5074683;28;20048;-75
2022/11/13 00:50:06;;;;;;;0.20;0.20;;;6.40;99.90;;;;;;5088048;28;20047;-74
2022/11/13 00:52:32;;;;;;;0.15;0.15;;;6.40;99.90;;;;;;5070184;28;20067;-75
2022/11/13 00:55:00;;;;;;;0.20;0.20;;;6.50;99.90;;;;;;5069027;28;20044;-75
2022/11/13 00:57:25;;;;;;;0.13;0.13;;;6.50;99.90;;;;;;5079072;28;20181;-74
2022/11/13 00:59:51;;;;;;;0.20;0.20;;;6.50;99.90;;;;;;5067685;28;20048;-74
2022/11/13 01:02:16;;;;;;;0.10;0.10;;;6.50;99.90;;;;;;5076422;28;20504;-74
2022/11/13 01:04:42;;;;;;;0.20;0.20;;;6.60;99.90;;;;;;5082666;28;20032;-74
2022/11/13 01:07:08;;;;;;;0.20;0.20;;;6.60;99.90;;;;;;5072410;28;20047;-74
2022/11/13 01:09:33;;;;;;;0.20;0.20;;;6.60;99.90;;;;;;5068898;28;20597;-75
2022/11/13 01:11:59;;;;;;;0.10;0.10;;;6.60;99.90;;;;;;5085127;28;20040;-75
2022/11/13 01:14:24;;;;;;;0.20;0.20;;;6.60;99.90;;;;;;5075261;28;20032;-75
2022/11/13 01:16:50;;;;;;;0.20;0.20;;;6.70;99.90;;;;;;5078094;28;20040;-74
2022/11/13 01:19:16;;;;;;;0.20;0.20;;;6.60;99.90;;;;;;5083335;28;20110;-74
2022/11/13 01:21:42;;;;;;;0.20;0.20;;;6.70;99.90;;;;;;5070453;28;20044;-74
2022/11/13 01:24:07;;;;;;;0.20;0.20;;;6.70;99.90;;;;;;5070823;28;20041;-75
2022/11/13 01:26:33;;;;;;;0.20;0.20;;;6.70;99.90;;;;;;5081687;28;20032;-74
2022/11/13 01:28:59;;;;;;;0.17;0.17;;;6.80;99.90;;;;;;5072802;28;20040;-75
2022/11/13 01:31:28;;;;;;;0.20;0.20;;;6.80;99.90;;;;;;5068859;28;20040;-75
2022/11/13 01:33:54;;;;;;;0.20;0.20;;;7.30;99.90;;;;;;5074569;28;20063;-75
2022/11/13 01:36:24;;;;;;;0.20;0.20;;;7.10;99.90;;;;;;5072905;28;20037;-75
2022/11/13 01:38:51;;;;;;;0.20;0.20;;;6.80;99.90;;;;;;5105458;28;20044;-75
2022/11/13 01:41:20;;;;;;;0.20;0.20;;;6.80;99.90;;;;;;5075467;28;20040;-73
2022/11/13 01:43:46;;;;;;;0.20;0.20;;;7.70;99.90;;;;;;5078517;28;20679;-76
2022/11/13 01:46:26;;;;;;;0.20;0.20;;;6.90;99.90;;;;;;5074728;28;20044;-76
2022/11/13 01:49:14;;;;;;;0.20;0.20;;;6.90;99.90;;;;;;5075462;28;20040;-75
2022/11/13 01:51:51;;;;;;;0.10;0.10;;;7.20;99.90;;;;;;5076496;28;20041;-73
2022/11/13 01:54:24;;;;;;;0.10;0.10;;;6.90;99.90;;;;;;5084855;28;20230;-74
2022/11/13 01:56:51;;;;;;;0.10;0.10;;;6.90;99.90;;;;;;5082802;28;20089;-74
2022/11/13 01:59:21;;;;;;;0.10;0.10;;;6.90;99.90;;;;;;5076535;28;20123;-75
2022/11/13 02:01:48;;;;;;;0.20;0.20;;;6.90;99.90;;;;;;5084608;28;20080;-74
2022/11/13 02:04:13;;;;;;;0.20;0.20;;;7.00;99.90;;;;;;5078577;28;20647;-73
2022/11/13 02:06:49;;;;;;;0.10;0.10;;;7.00;99.90;;;;;;5070289;28;20136;-73
2022/11/13 02:09:19;;;;;;;0.10;0.10;;;7.00;99.90;;;;;;5087385;28;20055;-73
2022/11/13 02:11:45;;;;;;;0.20;0.20;;;7.00;99.90;;;;;;5079573;28;20052;-74
2022/11/13 02:14:13;;;;;;;0.20;0.20;;;7.00;99.90;;;;;;5084777;28;20103;-74
2022/11/13 02:16:41;;;;;;;0.20;0.20;;;7.00;99.90;;;;;;5071655;28;20045;-74
2022/11/13 02:19:15;;;;;;;0.20;0.20;;;7.00;99.90;;;;;;5084121;28;20071;-74
2022/11/13 02:21:51;;;;;;;0.20;0.20;;;7.10;99.90;;;;;;5087518;28;20036;-74
2022/11/13 02:24:40;;;;;;;0.20;0.20;;;7.10;99.90;;;;;;5086361;28;20072;-74
2022/11/13 02:27:11;;;;;;;0.15;0.15;;;7.10;99.90;;;;;;5071749;28;20456;-73
2022/11/13 02:29:37;;;;;;;0.15;0.15;;;7.10;99.90;;;;;;5080503;28;20084;-74
2022/11/13 02:32:03;;;;;;;0.10;0.10;;;7.10;99.90;;;;;;5077668;28;20087;-73
2022/11/13 02:34:28;;;;;;;0.20;0.20;;;7.10;99.90;;;;;;5082830;28;20552;-73
2022/11/13 02:36:54;;;;;;;0.20;0.20;;;7.10;99.90;;;;;;5090262;28;20789;-74
2022/11/13 02:39:19;;;;;;;0.20;0.20;;;7.10;99.90;;;;;;5081268;28;20048;-74
2022/11/13 02:41:45;;;;;;;0.10;0.10;;;7.10;99.90;;;;;;5073659;28;20127;-74
2022/11/13 02:44:11;;;;;;;0.10;0.10;;;7.10;99.90;;;;;;5079779;28;20055;-74
2022/11/13 02:46:36;;;;;;;0.20;0.20;;;7.10;99.90;;;;;;5074633;28;20086;-73
2022/11/13 02:49:03;;;;;;;0.20;0.20;;;7.20;99.90;;;;;;5084383;28;20039;-73
2022/11/13 02:51:29;;;;;;;0.10;0.10;;;7.10;99.90;;;;;;5078215;28;20147;-73
2022/11/13 02:53:54;;;;;;;0.20;0.20;;;7.20;99.90;;;;;;5082585;28;20139;-74
2022/11/13 02:56:20;;;;;;;0.20;0.20;;;7.10;99.90;;;;;;5081016;28;20094;-73
2022/11/13 02:58:46;;;;;;;0.10;0.10;;;7.20;99.90;;;;;;5078851;28;20329;-74
2022/11/13 03:01:11;;;;;;;0.20;0.20;;;7.20;99.90;;;;;;5090018;28;20047;-73
2022/11/13 03:03:37;;;;;;;0.20;0.20;;;7.10;99.90;;;;;;5085943;28;20036;-73
2022/11/13 03:06:03;;;;;;;0.10;0.10;;;7.10;99.90;;;;;;5076511;28;20102;-74
2022/11/13 03:08:29;;;;;;;0.20;0.20;;;7.10;99.90;;;;;;5081847;28;20032;-73
2022/11/13 03:10:55;;;;;;;0.20;0.20;;;7.10;99.90;;;;;;5072780;28;20045;-73
2022/11/13 03:13:24;;;;;;;0.20;0.20;;;7.10;99.90;;;;;;5082745;28;20735;-73
2022/11/13 03:15:49;;;;;;;0.10;0.10;;;7.00;99.90;;;;;;5071361;28;20052;-73
2022/11/13 03:18:15;;;;;;;0.20;0.20;;;7.00;99.90;;;;;;5069625;28;20037;-73
2022/11/13 03:20:42;;;;;;;0.20;0.20;;;7.00;99.90;;;;;;5070497;28;20656;-74
2022/11/13 03:23:08;;;;;;;0.20;0.20;;;7.00;99.90;;;;;;5086204;28;20064;-73
2022/11/13 03:25:34;;;;;;;0.15;0.15;;;7.00;99.90;;;;;;5083692;28;20087;-73
2022/11/13 03:28:00;;;;;;;0.20;0.20;;;6.90;99.90;;;;;;5072929;28;20043;-73
2022/11/13 03:30:27;;;;;;;0.20;0.20;;;7.00;99.90;;;;;;5083466;28;20049;-73
2022/11/13 03:32:55;;;;;;;0.20;0.20;;;6.90;99.90;;;;;;5070704;28;20040;-73
2022/11/13 03:35:22;;;;;;;0.20;0.20;;;7.00;99.90;;;;;;5085674;28;20115;-74
2022/11/13 03:37:54;;;;;;;0.10;0.10;;;7.00;99.90;;;;;;5090082;28;20605;-73
2022/11/13 03:40:20;;;;;;;0.20;0.20;;;7.00;99.90;;;;;;5075394;28;20059;-74
2022/11/13 03:42:45;;;;;;;0.20;0.20;;;7.00;99.90;;;;;;5070219;28;20063;-74
2022/11/13 03:45:11;;;;;;;0.20;0.20;;;6.90;99.90;;;;;;5084906;28;20037;-74
2022/11/13 03:47:37;;;;;;;0.20;0.20;;;7.00;99.90;;;;;;5074537;28;20051;-73
2022/11/13 03:50:02;;;;;;;0.20;0.20;;;7.00;99.90;;;;;;5089861;28;20240;-74
2022/11/13 03:52:28;;;;;;;0.20;0.20;;;6.90;99.90;;;;;;5076648;28;20127;-73
2022/11/13 03:54:54;;;;;;;0.20;0.20;;;7.00;99.90;;;;;;5068823;28;20057;-74
2022/11/13 03:57:22;;;;;;;0.10;0.10;;;7.00;99.90;;;;;;5097643;28;20041;-75
2022/11/13 03:59:47;;;;;;;0.20;0.20;;;7.00;99.90;;;;;;5091103;28;20449;-74
2022/11/13 04:02:13;;;;;;;0.20;0.20;;;7.00;99.90;;;;;;5087683;28;20126;-75
2022/11/13 04:04:39;;;;;;;0.20;0.20;;;7.00;99.90;;;;;;5090118;28;20048;-75
2022/11/13 04:07:04;;;;;;;0.20;0.20;;;7.00;99.90;;;;;;5070692;28;20491;-75
2022/11/13 04:09:30;;;;;;;0.20;0.20;;;7.30;99.90;;;;;;5070432;28;20123;-75
2022/11/13 04:11:58;;;;;;;0.20;0.20;;;7.00;99.90;;;;;;5084049;28;20055;-74
2022/11/13 04:14:24;;;;;;;0.15;0.15;;;7.00;99.90;;;;;;5081204;28;20391;-75
2022/11/13 04:16:49;;;;;;;0.10;0.10;;;7.10;99.90;;;;;;5084318;28;20036;-75
2022/11/13 04:19:15;;;;;;;0.20;0.20;;;7.10;99.90;;;;;;5083954;28;20047;-75
2022/11/13 04:21:41;;;;;;;0.20;0.20;;;7.10;99.90;;;;;;5083635;28;20979;-74
2022/11/13 04:24:06;;;;;;;0.20;0.20;;;7.10;99.90;;;;;;5080477;28;20040;-75
2022/11/13 04:26:32;;;;;;;0.20;0.20;;;7.10;99.90;;;;;;5082230;28;20111;-75
2022/11/13 04:28:58;;;;;;;0.20;0.20;;;7.10;99.90;;;;;;5081246;28;20036;-75
2022/11/13 04:31:23;;;;;;;0.20;0.20;;;7.10;99.90;;;;;;5105485;28;20056;-75
2022/11/13 04:33:49;;;;;;;0.20;0.20;;;7.10;99.90;;;;;;5074069;28;20500;-75
2022/11/13 04:36:14;;;;;;;0.15;0.15;;;7.10;99.90;;;;;;5089737;28;20105;-74
2022/11/13 04:38:40;;;;;;;0.10;0.10;;;7.10;99.90;;;;;;5085483;28;20044;-75
2022/11/13 04:43:49;;;;;;;0.20;0.20;;;7.10;99.90;;;;;;5081685;28;20772;-75
2022/11/13 04:46:15;;;;;;;0.20;0.20;;;7.10;99.90;;;;;;5089708;28;20036;-74
2022/11/13 04:48:41;;;;;;;0.20;0.20;;;7.10;99.90;;;;;;5085562;28;20060;-75
2022/11/13 04:51:06;;;;;;;0.20;0.20;;;7.10;99.90;;;;;;5073097;28;20464;-75
2022/11/13 04:53:33;;;;;;;0.40;0.40;;;7.10;99.90;;;;;;5089421;28;20491;-74
2022/11/13 04:55:59;;;;;;;0.20;0.20;;;7.10;99.90;;;;;;5084925;28;20036;-75
2022/11/13 04:58:24;;;;;;;0.20;0.20;;;7.10;99.90;;;;;;5068825;28;20051;-75
2022/11/13 05:00:50;;;;;;;0.20;0.20;;;7.10;99.90;;;;;;5068115;28;20506;-75
2022/11/13 05:03:15;;;;;;;0.20;0.20;;;7.10;99.90;;;;;;5080025;28;20101;-74
2022/11/13 05:05:41;;;;;;;0.10;0.10;;;7.00;99.90;;;;;;5087004;28;20392;-74
2022/11/13 05:08:07;;;;;;;0.20;0.20;;;7.00;99.90;;;;;;5093246;28;20035;-75
2022/11/13 05:10:32;;;;;;;0.20;0.20;;;7.10;99.90;;;;;;5089774;28;20033;-74
2022/11/13 05:12:58;;;;;;;0.13;0.13;;;7.10;99.90;;;;;;5079951;28;20856;-74
2022/11/13 05:15:23;;;;;;;0.20;0.20;;;7.00;99.90;;;;;;5075907;28;20051;-74
2022/11/13 05:17:49;;;;;;;0.10;0.10;;;7.00;99.90;;;;;;5076565;28;20483;-74
2022/11/13 05:20:15;;;;;;;0.20;0.20;;;7.00;99.90;;;;;;5089605;28;20039;-74
2022/11/13 05:22:41;;;;;;;0.10;0.10;;;7.00;99.90;;;;;;5090869;28;20123;-75
2022/11/13 05:25:07;;;;;;;0.10;0.10;;;7.00;99.90;;;;;;5087355;28;20609;-75
2022/11/13 05:27:32;;;;;;;0.15;0.15;;;7.00;99.90;;;;;;5086021;28;20090;-74
2022/11/13 05:29:58;;;;;;;0.20;0.20;;;7.00;99.90;;;;;;5086469;28;20120;-74
2022/11/13 05:32:23;;;;;;;0.20;0.20;;;7.00;99.90;;;;;;5088872;28;20075;-75
2022/11/13 05:34:49;;;;;;;0.20;0.20;;;7.00;99.90;;;;;;5093741;28;20547;-74
2022/11/13 05:37:15;;;;;;;0.20;0.20;;;6.90;99.90;;;;;;5082416;28;20055;-75
2022/11/13 05:39:40;;;;;;;0.20;0.20;;;6.90;99.90;;;;;;5081734;28;20044;-75
2022/11/13 05:42:06;;;;;;;0.13;0.13;;;6.90;99.90;;;;;;5074514;28;20108;-75
2022/11/13 05:44:31;;;;;;;0.10;0.10;;;6.90;99.90;;;;;;5093493;28;20039;-75
2022/11/13 05:46:57;;;;;;;0.20;0.20;;;6.90;99.90;;;;;;5085426;28;20078;-75
2022/11/13 05:49:23;;;;;;;0.20;0.20;;;6.90;99.90;;;;;;5087858;28;20044;-75
2022/11/13 05:51:48;;;;;;;0.20;0.20;;;6.90;99.90;;;;;;5090150;28;20035;-75
2022/11/13 05:54:14;;;;;;;0.10;0.10;;;6.90;99.90;;;;;;5081070;28;20044;-75
2022/11/13 05:56:39;;;;;;;0.10;0.10;;;6.90;99.90;;;;;;5096633;28;20044;-75
2022/11/13 05:59:05;;;;;;;0.20;0.20;;;6.90;99.90;;;;;;5090190;28;20537;-75
2022/11/13 06:01:36;;;;;;;0.20;0.20;;;6.80;99.90;;;;;;5088138;28;20109;-75
2022/11/13 06:04:04;;;;;;;0.20;0.20;;;6.80;99.90;;;;;;5118565;28;20353;-74
2022/11/13 06:06:30;;;;;;;0.20;0.20;;;6.80;99.90;;;;;;5073786;28;20119;-75
2022/11/13 06:08:58;;;;;;;0.20;0.20;;;6.80;99.90;;;;;;5086846;28;20040;-75
2022/11/13 06:11:26;;;;;;;0.20;0.20;;;6.80;99.90;;;;;;5079608;28;20038;-74
2022/11/13 06:13:53;;;;;;;0.20;0.20;;;7.00;99.90;;;;;;5075520;28;20048;-75
2022/11/13 06:16:25;;;;;;;0.10;0.10;;;6.70;99.90;;;;;;5087123;28;20395;-75
2022/11/13 06:18:55;;;;;;;0.10;0.10;;;6.60;99.90;;;;;;5070580;28;20048;-75
2022/11/13 06:21:22;;;;;;;0.10;0.10;;;6.70;99.90;;;;;;5087245;28;20128;-74
2022/11/13 06:23:48;;;;;;;0.20;0.20;;;6.60;99.90;;;;;;5081453;28;20410;-75
2022/11/13 06:26:19;;;;;;;0.10;0.10;;;6.60;99.90;;;;;;5069624;28;20524;-75
2022/11/13 06:28:48;;;;;;;0.20;0.20;;;6.60;99.90;;;;;;5084303;28;20488;-75
2022/11/13 06:31:20;;;;;;;0.10;0.10;;;6.60;99.90;;;;;;5080101;28;20048;-75
2022/11/13 06:33:46;;;;;;;0.10;0.10;;;6.50;99.90;;;;;;5084585;28;20399;-75
2022/11/13 06:36:21;;;;;;;0.20;0.20;;;6.50;99.90;;;;;;5090826;28;20039;-75
2022/11/13 06:38:47;;;;;;;0.20;0.20;;;6.50;99.90;;;;;;5071235;28;20404;-75
2022/11/13 06:41:15;;;;;;;0.20;0.20;;;6.50;99.90;;;;;;5072833;28;20555;-75
2022/11/13 06:43:41;;;;;;;0.10;0.10;;;6.50;99.90;;;;;;5080849;28;20044;-75
2022/11/13 06:46:13;;;;;;;0.20;0.20;;;6.50;99.90;;;;;;5090600;28;20035;-74
2022/11/13 06:48:39;;;;;;;0.20;0.20;;;6.50;99.90;;;;;;5086179;28;20044;-75
2022/11/13 06:51:07;;;;;;;0.10;0.10;;;6.50;99.90;;;;;;5091939;28;20093;-75
2022/11/13 06:53:33;;;;;;;0.20;0.20;;;6.50;99.90;;;;;;5084738;28;20098;-75
2022/11/13 06:55:59;;;;;;;0.20;0.20;;;6.40;99.90;;;;;;5096040;28;20040;-75
2022/11/13 06:58:25;;;;;;;0.17;0.17;;;6.50;99.90;;;;;;5087798;28;20132;-74
2022/11/13 07:00:52;;;;;;;0.10;0.10;;;6.40;99.90;;;;;;5089214;28;20079;-74
2022/11/13 07:03:19;;;;;;;0.10;0.10;;;6.40;99.90;;;;;;5087561;28;20104;-74
2022/11/13 07:05:45;;;;;;;0.20;0.20;;;6.30;99.90;;;;;;5091113;28;20068;-75
2022/11/13 07:08:15;;;;;;;0.20;0.20;;;6.30;99.90;;;;;;5090138;28;20411;-75
2022/11/13 07:10:40;;;;;;;0.10;0.10;;;6.30;99.90;;;;;;5092721;28;20449;-75
2022/11/13 07:13:06;;;;;;;0.20;0.20;;;6.30;99.90;;;;;;5087060;28;20120;-75
2022/11/13 07:15:36;;;;;;;0.10;0.10;;;6.30;99.90;;;;;;5085368;28;20040;-75
2022/11/13 07:18:03;;;;;;;0.20;0.20;;;6.30;99.90;;;;;;5075944;28;20048;-75
2022/11/13 07:20:29;;;;;;;0.10;0.10;;;6.30;99.90;;;;;;5083816;28;20044;-75
2022/11/13 07:22:59;;;;;;;0.20;0.20;;;6.30;99.90;;;;;;5089915;28;20054;-75
2022/11/13 07:25:26;;;;;;;0.13;0.13;;;6.30;99.90;;;;;;5074771;28;20116;-75
2022/11/13 07:27:52;;;;;;;0.20;0.20;;;6.30;99.90;;;;;;5073654;28;20036;-74
2022/11/13 07:30:18;;;;;;;0.20;0.20;;;6.30;99.90;;;;;;5088390;28;20048;-75
2022/11/13 07:32:43;;;;;;;0.20;0.20;;;6.20;99.90;;;;;;5079704;28;20055;-75
2022/11/13 07:35:10;;;;;;;0.20;0.20;;;6.20;99.90;;;;;;5071779;28;20044;-75
2022/11/13 07:37:36;;;;;;;0.20;0.20;;;6.30;99.90;;;;;;5076457;28;20051;-74
2022/11/13 07:40:02;;;;;;;0.20;0.20;;;6.30;99.90;;;;;;5087434;28;20171;-75
2022/11/13 07:42:28;;;;;;;0.20;0.20;;;6.30;99.90;;;;;;5087734;28;20054;-75
2022/11/13 07:44:54;;;;;;;0.10;0.10;;;6.20;99.90;;;;;;5083631;28;20770;-75
2022/11/13 07:47:19;;;;;;;0.20;0.20;;;6.30;99.90;;;;;;5079444;28;20166;-75
2022/11/13 07:49:45;;;;;;;0.20;0.20;;;6.20;99.90;;;;;;5090199;28;20044;-75
2022/11/13 07:52:10;;;;;;;0.20;0.20;;;6.30;99.90;;;;;;5088366;28;20425;-75
2022/11/13 07:54:36;;;;;;;0.20;0.20;;;6.30;99.90;;;;;;5091220;28;20040;-75
2022/11/13 07:57:02;;;;;;;0.20;0.20;;;6.20;99.90;;;;;;5083262;28;20032;-74
2022/11/13 07:59:27;;;;;;;0.10;0.10;;;6.20;99.90;;;;;;5086300;28;20399;-76
2022/11/13 08:01:53;;;;;;;0.15;0.15;;;6.30;99.90;;;;;;5078076;28;20036;-76
2022/11/13 08:04:19;;;;;;;0.20;0.20;;;6.30;99.90;;;;;;5089028;28;20036;-76
2022/11/13 08:06:44;;;;;;;0.20;0.20;;;6.30;99.90;;;;;;5087956;28;20486;-75
2022/11/13 08:09:10;;;;;;;0.20;0.20;;;6.30;99.90;;;;;;5085920;28;20032;-75
2022/11/13 08:11:35;;;;;;;0.10;0.10;;;6.40;99.90;;;;;;5075984;28;20514;-75
2022/11/13 08:14:01;;;;;;;0.20;0.20;;;6.40;99.90;;;;;;5077737;28;20118;-75
2022/11/13 08:16:27;;;;;;;0.20;0.20;;;6.50;99.90;;;;;;5089337;28;20056;-75
2022/11/13 08:18:53;;;;;;;0.20;0.20;;;6.50;99.90;;;;;;5111781;27;20047;-75
2022/11/13 08:21:20;;;;;;;0.20;0.20;;;6.50;99.90;;;;;;5087372;28;20139;-75
2022/11/13 08:23:46;;;;;;;0.10;0.10;;;6.60;99.90;;;;;;5078780;28;20126;-75
2022/11/13 08:26:12;;;;;;;0.20;0.20;;;6.60;99.90;;;;;;5075784;28;20424;-75
2022/11/13 08:28:38;;;;;;;0.15;0.15;;;6.70;99.90;;;;;;5087718;28;20541;-74
2022/11/13 08:31:10;;;;;;;0.20;0.20;;;6.70;99.90;;;;;;5108908;27;20067;-73
2022/11/13 08:33:36;;;;;;;0.20;0.20;;;6.70;99.90;;;;;;5104348;27;20476;-73
2022/11/13 08:36:02;;;;;;;0.10;0.10;;;6.80;99.90;;;;;;5080358;28;20496;-73
2022/11/13 08:38:28;;;;;;;0.10;0.10;;;6.80;99.90;;;;;;5083210;28;20044;-74
2022/11/13 08:41:00;;;;;;;0.20;0.20;;;6.90;99.90;;;;;;5090626;28;20086;-74
2022/11/13 08:43:26;;;;;;;0.10;0.10;;;6.90;99.90;;;;;;5066650;28;20049;-74
2022/11/13 08:45:52;;;;;;;0.20;0.20;;;7.00;99.90;;;;;;5089740;28;20043;-74
2022/11/13 08:48:18;;;;;;;0.20;0.20;;;7.10;99.90;;;;;;5084579;28;20511;-73
2022/11/13 08:50:43;;;;;;;0.10;0.10;;;7.10;99.90;;;;;;5073879;28;20044;-74
2022/11/13 08:53:09;;;;;;;0.20;0.20;;;7.10;99.90;;;;;;5069584;28;20514;-76
2022/11/13 08:55:35;;;;;;;0.10;0.10;;;7.20;99.90;;;;;;5087177;28;20047;-74
2022/11/13 08:58:02;;;;;;;0.20;0.20;;;7.10;99.90;;;;;;5080449;28;20048;-74
2022/11/13 09:00:32;;;;;;;0.20;0.20;;;7.30;99.90;;;;;;5083594;28;20058;-74
2022/11/13 09:02:59;;;;;;;0.20;0.20;;;7.40;99.90;;;;;;5089275;28;20035;-75
2022/11/13 09:05:25;;;;;;;0.20;0.20;;;7.30;99.90;;;;;;5085389;28;20040;-75
2022/11/13 09:07:55;;;;;;;0.20;0.20;;;7.40;99.90;;;;;;5083353;28;20055;-74
2022/11/13 09:10:21;;;;;;;0.20;0.20;;;7.40;99.90;;;;;;5088523;28;20048;-74
2022/11/13 09:12:47;;;;;;;0.20;0.20;;;7.30;99.90;;;;;;5086852;28;20093;-75
2022/11/13 09:15:12;;;;;;;0.20;0.20;;;7.40;99.90;;;;;;5093768;28;20456;-74
2022/11/13 09:17:38;;;;;;;0.20;0.20;;;7.50;99.90;;;;;;5074187;28;20040;-74
2022/11/13 09:20:07;;;;;;;0.20;0.20;;;7.70;99.90;;;;;;5083193;28;20051;-75
2022/11/13 09:22:34;;;;;;;0.20;0.20;;;7.80;99.90;;;;;;5105382;28;20048;-75
2022/11/13 09:25:02;;;;;;;0.20;0.20;;;7.60;99.90;;;;;;5079582;28;20395;-74
2022/11/13 09:27:28;;;;;;;0.20;0.20;;;7.90;99.90;;;;;;5071965;28;20079;-75
2022/11/13 09:29:53;;;;;;;0.20;0.20;;;7.90;99.90;;;;;;5073047;28;20087;-75
2022/11/13 09:32:19;;;;;;;0.15;0.15;;;7.80;99.90;;;;;;5083147;28;20039;-75
2022/11/13 09:34:45;;;;;;;0.10;0.10;;;7.80;99.90;;;;;;5080281;28;20456;-75
2022/11/13 09:37:12;;;;;;;0.10;0.10;;;8.20;99.90;;;;;;5085627;28;20040;-75
2022/11/13 09:39:38;;;;;;;0.20;0.20;;;8.00;99.90;;;;;;5078945;28;20404;-75
2022/11/13 09:42:19;;;;;;;0.17;0.17;;;8.20;99.90;;;;;;5068887;28;20174;-75
2022/11/13 09:44:54;;;;;;;0.20;0.20;;;8.40;99.90;;;;;;5078770;28;20040;-77
2022/11/13 09:47:34;;;;;;;0.10;0.10;;;8.40;99.90;;;;;;5076602;28;20097;-75
2022/11/13 09:50:21;;;;;;;0.20;0.20;;;8.60;99.90;;;;;;5080684;28;20130;-75
2022/11/13 09:52:47;;;;;;;0.20;0.20;;;8.60;99.90;;;;;;5088704;28;20144;-75
2022/11/13 09:55:15;;;;;;;0.20;0.20;;;8.60;99.90;;;;;;5089377;28;20044;-76
2022/11/13 09:58:18;;;;;;;0.20;0.20;;;8.90;99.90;;;;;;5072479;28;20450;-75
2022/11/13 10:00:47;;;;;;;0.20;0.20;;;8.90;99.90;;;;;;5078795;28;20055;-76
2022/11/13 10:03:51;;;;;;;0.20;0.20;;;9.00;99.90;;;;;;5082376;28;20592;-75
2022/11/13 10:06:26;;;;;;;0.20;0.20;;;9.30;99.90;;;;;;5055421;28;20054;-79
2022/11/13 10:09:00;;;;;;;0.20;0.20;;;9.10;99.90;;;;;;5096043;28;20399;-74
2022/11/13 10:11:42;;;;;;;0.10;0.10;;;9.40;99.90;;;;;;5093982;28;20383;-75
2022/11/13 10:14:36;;;;;;;0.10;0.10;;;9.20;99.90;;;;;;5080188;28;20515;-75
2022/11/13 10:17:30;;;;;;;0.15;0.15;;;9.40;99.90;;;;;;5087371;28;20128;-75
2022/11/13 10:19:59;;;;;;;0.20;0.20;;;9.40;99.90;;;;;;5080163;28;20052;-75
2022/11/13 10:22:30;;;;;;;0.10;0.10;;;9.50;99.90;;;;;;5091810;28;20074;-76
2022/11/13 10:25:15;;;;;;;0.20;0.20;;;;;;;;;;5079376;28;20057;-77
2022/11/13 10:27:42;;;;;;;0.20;0.20;;;;;;;;;;5078741;28;20634;-76
2022/11/13 10:30:13;;;;;;;0.20;0.20;;;;;;;;;;5088373;28;20055;-75
2022/11/13 10:32:39;;;;;;;0.20;0.20;;;;;;;;;;5081245;28;20105;-76
2022/11/13 10:35:05;;;;;;;0.20;0.20;;;;;;;;;;5075027;28;20045;-77
2022/11/13 10:37:34;;;;;;;0.20;0.20;;;;;;;;;;5093853;28;20040;-77
2022/11/13 10:40:00;;;;;;;0.10;0.10;;;;;;;;;;5081086;28;20368;-76
2022/11/13 10:42:36;;;;;;;0.13;0.13;;;;;;;;;;5091828;28;20044;-77
2022/11/13 10:45:03;;;;;;;0.20;0.20;;;;;;;;;;5097427;28;20419;-75
2022/11/13 10:47:32;;;;;;;0.17;0.17;;;;;;;;;;5081267;28;20055;-76
2022/11/13 10:50:08;;;;;;;0.10;0.10;;;;;;;;;;5086872;28;20448;-76
2022/11/13 10:52:43;;;;;;;0.10;0.10;;;;;;;;;;5088476;28;20048;-76
2022/11/13 10:55:14;;;;;;;0.10;0.10;;;;;;;;;;5086434;28;20068;-75
2022/11/13 10:57:40;;;;;;;;;;;;;;;;;;5092227;28;20143;-76
2022/11/13 11:00:24;;;;;;;0.20;0.20;;;;;;;;;;5088329;28;20007;-76
2022/11/13 11:02:50;;;;;;;0.10;0.10;;;;;;;;;;5093124;28;20459;-76
2022/11/13 11:05:18;;;;;;;0.10;0.10;;;;;;;;;;5087372;28;20093;-75
2022/11/13 11:07:44;;;;;;;0.10;0.10;;;;;;;;;;5088048;28;20052;-76
2022/11/13 11:10:29;;;;;;;0.20;0.20;;;;;;;;;;5079822;28;20123;-75
2022/11/13 11:13:15;;;;;;;0.10;0.10;;;;;;;;;;5077677;28;20066;-75
2022/11/13 11:15:41;;;;;;;0.20;0.20;;;;;;;;;;5092345;28;20043;-75
2022/11/13 11:18:18;;;;;;;0.20;0.20;;;;;;;;;;5082849;28;20048;-75
2022/11/13 11:20:54;;;;;;;0.20;0.20;;;;;;;;;;5090624;28;20055;-75
2022/11/13 11:23:32;;;;;;;0.13;0.13;;;;;;;;;;5092612;28;20058;-75
2022/11/13 11:26:10;;;;;;;0.10;0.10;;;;;;;;;;5090875;28;20433;-75
2022/11/13 11:28:42;;;;;;;0.10;0.10;;;;;;;;;;5084734;28;20091;-75
2022/11/13 11:31:12;;;;;;;0.13;0.13;;;;;;;;;;5070812;28;20106;-75
2022/11/13 11:33:56;;;;;;;0.30;0.30;;;;;;;;;;5071190;28;20048;-75
2022/11/13 11:36:28;;;;;;;0.13;0.13;;;;;;;;;;5091974;28;20494;-75
2022/11/13 11:38:59;;;;;;;0.13;0.13;;;;;;;;;;5090152;28;20083;-76
2022/11/13 11:41:45;;;;;;;0.20;0.20;;;;;;;;;;5089554;28;20036;-75
2022/11/13 11:44:11;;;;;;;0.10;0.10;;;;;;;;;;5088501;28;20131;-76
2022/11/13 11:46:37;;;;;;;0.17;0.17;;;;;;;;;;5088403;28;20052;-75
2022/11/13 11:49:04;;;;;;;0.20;0.20;;;;;;;;;;5072315;28;20055;-76
2022/11/13 11:51:30;;;;;;;0.20;0.20;;;;;;;;;;5085868;28;20167;-76
2022/11/13 11:54:07;;;;;;;0.20;0.20;;;;;;;;;;5089743;28;20040;-76
2022/11/13 11:56:39;;;;;;;0.10;0.10;;;;;;;;;;5085537;28;20760;-76
2022/11/13 11:59:12;;;;;;;0.20;0.20;;;;;;;;;;5089270;28;20051;-76
2022/11/13 12:01:47;;;;;;;0.20;0.20;;;;;;;;;;5089728;28;20055;-76
2022/11/13 12:04:13;;;;;;;0.10;0.10;;;;;;;;;;5081404;28;20539;-76
2022/11/13 12:06:41;;;;;;;0.20;0.20;;;;;;;;;;5083463;28;20083;-76
2022/11/13 12:09:13;;;;;;;0.20;0.20;;;;;;;;;;5089484;28;20048;-76
2022/11/13 12:11:45;;;;;;;0.10;0.10;;;;;;;;;;5090690;28;20483;-76
2022/11/13 12:14:20;;;;;;;0.10;0.10;;;;;;;;;;5079884;28;20131;-76
2022/11/13 12:16:49;;;;;;;0.15;0.15;;;;;;;;;;5088715;28;20693;-76
2022/11/13 12:19:30;;;;;;;0.10;0.10;;;;;;;;;;5091381;28;20048;-76
2022/11/13 12:22:10;;;;;;;0.20;0.20;;;;;;;;;;5092989;28;20040;-76
2022/11/13 12:24:55;;;;;;;0.13;0.13;;;;;;;;;;5087757;28;20052;-77
2022/11/13 12:27:21;;;;;;;0.20;0.20;;;;;;;;;;5082839;28;20032;-76
2022/11/13 12:30:02;;;;;;;0.17;0.17;;;;;;;;;;5084472;28;20043;-77
2022/11/13 12:32:47;;;;;;;0.20;0.20;;;;;;;;;;5079644;28;20133;-75
2022/11/13 12:35:16;;;;;;;0.20;0.20;;;;;;;;;;5084564;28;20052;-75
2022/11/13 12:37:42;;;;;;;0.20;0.20;;;;;;;;;;5076117;28;20428;-77
2022/11/13 12:40:16;;;;;;;0.20;0.20;;;;;;;;;;5080156;28;20101;-76
2022/11/13 12:42:46;;;;;;;0.20;0.20;;;;;;;;;;5087056;28;20039;-77
2022/11/13 12:45:19;;;;;;;0.17;0.17;;;;;;;;;;5089984;28;20066;-77
2022/11/13 12:47:48;;;;;;;0.20;0.20;;;;;;;;;;5085956;28;20368;-76
2022/11/13 12:50:27;;;;;;;0.20;0.20;;;;;;;;;;5069610;28;20404;-76
2022/11/13 12:53:00;;;;;;;0.20;0.20;;;;;;;;;;5082172;28;20123;-76
2022/11/13 12:55:28;;;;;;;0.20;0.20;;;;;;;;;;5088882;28;20063;-76
2022/11/13 12:58:07;;;;;;;0.20;0.20;;;;;;;;;;5088167;28;20375;-76
2022/11/13 13:00:34;;;;;;;0.20;0.20;;;;;;;;;;5089460;28;20146;-76
2022/11/13 13:03:09;;;;;;;0.20;0.20;;;;;;;;;;5090033;28;20040;-76
2022/11/13 13:05:54;;;;;;;0.20;0.20;;;;;;;;;;5089010;28;20056;-76
2022/11/13 13:08:43;;;;;;;0.20;0.20;;;;;;;;;;5088855;28;20086;-76
2022/11/13 13:11:19;;;;;;;0.20;0.20;;;;;;;;;;5089150;28;20136;-76
2022/11/13 13:13:49;;;;;;;0.20;0.20;;;;;;;;;;5088615;28;20044;-76
2022/11/13 13:16:24;;;;;;;0.20;0.20;;;;;;;;;;5075910;28;20055;-76
2022/11/13 13:18:50;;;;;;;0.10;0.10;;;;;;;;;;5089040;28;20115;-77
2022/11/13 13:21:17;;;;;;;0.20;0.20;;;;;;;;;;5084240;28;20086;-76
2022/11/13 13:23:45;;;;;;;0.20;0.20;;;;;;;;;;5089464;28;20058;-76
2022/11/13 13:26:20;;;;;;;0.20;0.20;;;;;;;;;;5088103;28;20475;-76
2022/11/13 13:28:49;;;;;;;0.13;0.13;;;;;;;;;;5082474;28;20040;-76
2022/11/13 13:31:21;;;;;;;0.20;0.20;;;;;;;;;;5089672;28;20048;-76